OIIK  Qazvin  Airport

Qazvin, Iran

Add Bookmark
ICAO OIIK
Type Airport
Status Operational
Latitude
36° 14' 24" N
36.240101
Longitude
50° 2' 49" E
50.047100
Local (GMT +4.5 ) UTC
May 6, 2016 11:52 am May 6, 2016 07:22
Sunrise-Sunset Local UTC
Begin Civil Twilight 05:41 am 01:11
Sunrise 06:09 am 01:39
Sunset 08:03 pm 15:33
End Civil Twilight 08:31 pm 16:01
VFR
VFR
MVFR
MVFR
IFR
IFR
LIFR
LIFR
Unknown
Unavailable

Current Weather

METAR Observed VFR
OIIK 060600Z 10006KT CAVOK 21/09 Q1018 Fri, May 6, 2016 @ 06:00 UTC
(1 Hour, 22 Minutes ago)
Visual Flight Rules
Wind Visibility Conditions
100° at 6 knots (11 kph) 10 km or more
  • No significant weather
Temperatures Readings Precipitation
Current Temp
21°C
70°F
Dewpoint
9°C
48°F
Humidity 46%
Altimeter 30.06" Hg
Sea Level Pressure 1,018 mb
Field Elevation
1,278 m
4,193 ft
None Recorded

Additional weather within a 92.6km radius of OIIK

Map ICAO Location
OIIP 87km SE (126°)
VFR
VFR
MVFR
MVFR
IFR
IFR
LIFR
LIFR
Unknown
Unavailable
-
-

CheckWX.com is intended as a tool to help pilots better visualize weather data. It is not intended as a substitute for an official weather briefing obtained from a Flight Service Station. CheckWX.com does not meet the FAA requirements for an official pre-flight weather briefing. Therefore, it's important that pilots still call and obtain an official FSS pre-flight weather briefing.

© 2007-2016 CheckWX.com
07:22:50 UTC